Terminal Aerodrome Forecast
Issued by NWS Sterling, VA

Current Version | Previous Version | Text Only | Print | Product List | Glossary Off
Versions: 1 2 3 4 5 6 7 8 9 10 11 12 13 14 15 16 17 18 19 20 21 22 23 24 25 26 27 28 29 30

462
FTUS41 KLWX 170701 AAA
TAFIAD
TAF AMD
KIAD 170701Z 1707/1812 VRB03KT P6SM VCSH OVC008
     FM171300 VRB03KT 3SM -SHRA BR OVC008
     FM171500 17007KT 6SM -SHRA BR OVC015
     FM172100 19009KT P6SM BKN025
     FM180000 19007KT P6SM BKN008
     FM180600 24006KT P6SM BKN080=

USA.gov is the U.S. government's official web portal to all federal, state and local government web resources and services.